createdAt,value
2022-10-14T00:00:53.112Z,30.50
2022-10-14T00:05:54.847Z,29.27
2022-10-14T00:10:56.595Z,29.70
2022-10-14T00:15:58.366Z,32.67
2022-10-14T00:21:01.859Z,30.53
2022-10-14T00:26:03.745Z,33.17
2022-10-14T00:31:05.726Z,33.93
2022-10-14T00:36:11.921Z,35.20
2022-10-14T00:41:23.269Z,34.40
2022-10-14T00:46:31.265Z,33.93
2022-10-14T00:51:39.831Z,33.30
2022-10-14T00:56:45.368Z,32.17
2022-10-14T01:01:47.437Z,31.63
2022-10-14T01:07:09.111Z,31.23
2022-10-14T01:12:47.562Z,32.10
2022-10-14T01:18:03.662Z,33.37
2022-10-14T01:23:21.107Z,32.90
2022-10-14T01:28:47.648Z,34.47
2022-10-14T01:33:56.070Z,33.53
2022-10-14T01:39:20.312Z,33.83
2022-10-14T01:44:25.140Z,32.93
2022-10-14T01:49:39.268Z,30.63
2022-10-14T01:54:44.463Z,33.43
2022-10-14T01:59:46.835Z,31.03
2022-10-14T02:04:48.511Z,30.83
2022-10-14T02:09:59.325Z,30.67
2022-10-14T02:15:10.636Z,29.10
2022-10-14T02:20:31.034Z,28.13
2022-10-14T02:25:39.256Z,28.17
2022-10-14T02:30:58.962Z,26.57
2022-10-14T02:36:02.114Z,25.57
2022-10-14T02:41:06.096Z,29.03
2022-10-14T02:46:13.725Z,27.87
2022-10-14T02:51:16.591Z,27.90
2022-10-14T02:56:18.621Z,27.63
2022-10-14T03:01:20.576Z,27.73
2022-10-14T03:06:22.312Z,28.70
2022-10-14T03:11:24.004Z,28.13
2022-10-14T03:16:25.718Z,29.40
2022-10-14T03:21:30.725Z,28.50
2022-10-14T03:26:32.636Z,28.67
2022-10-14T03:31:34.510Z,25.03
2022-10-14T03:36:44.988Z,26.40
2022-10-14T03:41:47.271Z,27.63
2022-10-14T03:46:49.137Z,30.27
2022-10-14T03:51:58.567Z,28.00
2022-10-14T03:57:00.431Z,29.37
2022-10-14T04:02:02.402Z,29.67
2022-10-14T04:07:04.311Z,32.10
2022-10-14T04:12:06.281Z,32.97
2022-10-14T04:17:10.742Z,33.20
2022-10-14T04:22:12.454Z,32.13
2022-10-14T04:27:15.467Z,33.00
2022-10-14T04:32:19.524Z,33.40
2022-10-14T04:37:21.406Z,34.97
2022-10-14T04:42:25.721Z,33.00
2022-10-14T04:47:27.445Z,34.17
2022-10-14T04:52:31.726Z,33.70
2022-10-14T04:57:40.585Z,30.73
2022-10-14T05:02:57.197Z,33.77
2022-10-14T05:07:59.002Z,31.83
2022-10-14T05:13:00.917Z,29.63
2022-10-14T05:18:02.686Z,32.00
2022-10-14T05:23:05.402Z,34.30
2022-10-14T05:28:07.269Z,28.53
2022-10-14T05:33:09.097Z,31.23
2022-10-14T05:38:12.894Z,30.03
2022-10-14T05:43:14.621Z,31.47
2022-10-14T05:48:17.362Z,30.60
2022-10-14T05:53:19.273Z,28.57
2022-10-14T05:58:23.370Z,30.03
2022-10-14T06:03:27.908Z,27.83
2022-10-14T06:08:32.537Z,30.73
2022-10-14T06:13:35.473Z,28.93
2022-10-14T06:18:37.900Z,29.00
2022-10-14T06:23:41.961Z,29.67
2022-10-14T06:28:46.172Z,30.10
2022-10-14T06:33:48.136Z,30.93
2022-10-14T06:38:49.915Z,31.60
2022-10-14T06:43:51.849Z,33.07
2022-10-14T06:48:55.366Z,31.47
2022-10-14T06:53:57.370Z,33.67
2022-10-14T06:58:59.201Z,37.67
2022-10-14T07:04:01.018Z,34.87
2022-10-14T07:09:02.963Z,31.10
2022-10-14T07:14:04.622Z,31.37
2022-10-14T07:19:06.356Z,25.90
2022-10-14T07:24:09.134Z,27.57
2022-10-14T07:29:11.014Z,27.13
2022-10-14T07:34:12.702Z,24.77
2022-10-14T07:39:14.582Z,24.33
2022-10-14T07:44:17.310Z,24.00
2022-10-14T07:49:20.480Z,23.13
2022-10-14T07:54:26.028Z,20.53
2022-10-14T07:59:28.101Z,18.40
2022-10-14T08:04:30.042Z,18.13
2022-10-14T08:09:31.799Z,17.40
2022-10-14T08:14:33.510Z,16.33
2022-10-14T08:19:35.506Z,14.27
2022-10-14T08:24:37.313Z,14.77
2022-10-14T08:29:39.172Z,12.30
2022-10-14T08:34:42.187Z,11.17
2022-10-14T08:39:44.041Z,10.90
2022-10-14T08:45:08.297Z,9.33
2022-10-14T08:50:33.098Z,8.97
2022-10-14T08:55:42.633Z,9.00
2022-10-14T09:00:46.949Z,6.97
2022-10-14T09:06:01.304Z,7.33
2022-10-14T09:11:03.200Z,5.90
2022-10-14T09:16:19.914Z,6.53
2022-10-14T09:21:52.637Z,4.10
2022-10-14T09:26:59.901Z,4.37
2022-10-14T09:32:04.521Z,4.30
2022-10-14T09:37:25.464Z,3.90
2022-10-14T09:42:52.634Z,3.67
2022-10-14T09:48:37.674Z,3.20
2022-10-14T09:53:50.361Z,3.70
2022-10-14T09:59:10.438Z,3.63
2022-10-14T10:04:50.430Z,3.60
2022-10-14T10:09:58.314Z,3.30
2022-10-14T10:15:05.146Z,3.73
2022-10-14T10:20:28.558Z,3.33
2022-10-14T10:25:30.468Z,3.17
2022-10-14T10:30:50.700Z,3.00
2022-10-14T10:36:04.344Z,3.53
2022-10-14T10:41:15.238Z,3.33
2022-10-14T10:46:45.014Z,3.97
2022-10-14T10:51:54.628Z,3.73
2022-10-14T10:57:05.884Z,4.00
2022-10-14T11:20:44.834Z,3.33
2022-10-14T11:25:55.317Z,2.37
2022-10-14T11:31:00.160Z,1.70
2022-10-14T11:36:13.676Z,1.40
2022-10-14T11:41:36.756Z,1.10
2022-10-14T11:46:44.218Z,1.13
2022-10-14T11:51:49.776Z,0.97
2022-10-14T11:57:14.283Z,1.37
2022-10-14T12:02:48.869Z,1.10
2022-10-14T12:08:05.630Z,0.87
2022-10-14T12:13:13.959Z,1.07
2022-10-14T12:18:15.923Z,0.80
2022-10-14T12:23:50.251Z,1.07
2022-10-14T12:28:53.999Z,1.10
2022-10-14T12:34:11.371Z,1.40
2022-10-14T12:39:19.406Z,1.10
2022-10-14T12:44:23.287Z,0.90
2022-10-14T12:55:15.580Z,0.93
2022-10-14T13:00:36.292Z,0.60
2022-10-14T13:05:39.417Z,0.90
2022-10-14T13:11:04.771Z,1.00
2022-10-14T13:16:11.077Z,0.90
2022-10-14T13:21:41.486Z,1.20
2022-10-14T13:27:09.234Z,1.03
2022-10-14T13:32:40.091Z,1.17
2022-10-14T13:37:59.486Z,1.30
2022-10-14T13:43:07.074Z,1.43
2022-10-14T13:48:14.586Z,2.20
2022-10-14T13:53:21.994Z,1.50
2022-10-14T13:58:24.991Z,1.47
2022-10-14T14:03:38.176Z,1.60
2022-10-14T14:08:58.261Z,1.90
2022-10-14T14:14:16.403Z,2.47
2022-10-14T14:19:29.477Z,2.80
2022-10-14T14:24:34.074Z,2.50
2022-10-14T14:29:36.088Z,2.67
2022-10-14T14:35:47.300Z,2.97
2022-10-14T14:41:10.028Z,3.60
2022-10-14T14:46:22.390Z,2.90
2022-10-14T14:51:38.060Z,3.27
2022-10-14T14:56:42.848Z,3.57
2022-10-14T15:08:23.127Z,3.97
2022-10-14T15:20:18.810Z,3.60
2022-10-14T15:25:25.599Z,3.67
2022-10-14T15:30:39.504Z,4.23
2022-10-14T15:35:42.476Z,4.80
2022-10-14T15:40:45.443Z,4.77
2022-10-14T15:46:11.380Z,4.43
2022-10-14T15:51:26.557Z,4.80
2022-10-14T15:56:29.499Z,7.00
2022-10-14T16:01:41.517Z,5.50
2022-10-14T16:27:43.726Z,5.97
2022-10-14T16:38:39.554Z,6.13
2022-10-14T16:44:14.285Z,5.80
2022-10-14T16:49:37.325Z,6.67
2022-10-14T16:54:54.287Z,7.47
2022-10-14T17:00:23.915Z,5.97
2022-10-14T17:05:36.622Z,6.73
2022-10-14T17:10:39.259Z,7.10
2022-10-14T17:15:40.930Z,6.50
2022-10-14T17:20:55.900Z,6.63
2022-10-14T17:26:02.697Z,7.20
2022-10-14T17:31:16.103Z,6.97
2022-10-14T17:36:32.083Z,7.10
2022-10-14T17:41:45.772Z,7.10
2022-10-14T17:46:56.778Z,6.97
2022-10-14T17:52:05.375Z,6.47
2022-10-14T17:57:23.369Z,6.23
2022-10-14T18:02:25.565Z,6.57
2022-10-14T18:07:27.236Z,5.50
2022-10-14T18:12:28.951Z,6.07
2022-10-14T18:17:36.101Z,5.70
2022-10-14T18:22:40.109Z,5.87
2022-10-14T18:27:44.910Z,6.30
2022-10-14T18:32:46.663Z,4.83
2022-10-14T18:37:55.068Z,4.20
2022-10-14T18:42:58.141Z,3.87
2022-10-14T18:47:59.976Z,4.53
2022-10-14T18:53:01.847Z,14.87
2022-10-14T18:58:03.593Z,5.73
2022-10-14T19:03:11.231Z,4.50
2022-10-14T19:13:15.803Z,3.50
2022-10-14T19:18:17.489Z,4.13
2022-10-14T19:23:19.271Z,4.97
2022-10-14T19:28:21.082Z,5.33
2022-10-14T19:35:01.724Z,4.77
2022-10-14T19:40:10.820Z,4.80
2022-10-14T19:45:13.413Z,4.40
2022-10-14T19:50:15.233Z,5.90
2022-10-14T19:55:17.120Z,7.87
2022-10-14T20:00:38.320Z,6.63
2022-10-14T20:05:44.541Z,19.90
2022-10-14T20:10:46.280Z,37.43
2022-10-14T20:16:35.302Z,11.23
2022-10-14T20:21:41.843Z,10.53
2022-10-14T20:26:43.562Z,9.30
2022-10-14T20:31:49.047Z,8.87
2022-10-14T20:37:21.949Z,9.53
2022-10-14T20:42:37.312Z,9.17
2022-10-14T20:47:53.596Z,10.93
2022-10-14T20:52:55.652Z,9.90
2022-10-14T20:57:57.387Z,10.80
2022-10-14T21:03:01.897Z,13.80
2022-10-14T21:08:04.739Z,12.00
2022-10-14T21:13:06.523Z,12.80
2022-10-14T21:18:08.302Z,10.80
2022-10-14T21:23:11.362Z,10.93
2022-10-14T21:28:17.303Z,11.57
2022-10-14T21:33:19.089Z,11.03
2022-10-14T21:38:31.775Z,13.37
2022-10-14T21:55:33.519Z,13.07
2022-10-14T22:00:35.265Z,11.53
2022-10-14T22:05:37.053Z,11.13
2022-10-14T22:10:49.755Z,9.90
2022-10-14T22:15:51.981Z,11.40
2022-10-14T22:21:09.547Z,11.37
2022-10-14T22:26:15.874Z,11.50
2022-10-14T22:31:20.090Z,11.97
2022-10-14T22:36:24.213Z,12.03
2022-10-14T22:41:30.962Z,11.10
2022-10-14T22:46:35.752Z,12.73
2022-10-14T22:51:42.165Z,11.77
2022-10-14T22:56:43.963Z,10.80
2022-10-14T23:01:45.652Z,10.63
2022-10-14T23:06:55.194Z,11.30
2022-10-14T23:12:04.530Z,12.00
2022-10-14T23:17:08.809Z,10.60
2022-10-14T23:22:10.627Z,11.73
2022-10-14T23:27:12.274Z,10.57
2022-10-14T23:32:14.171Z,8.70
2022-10-14T23:37:15.892Z,10.57
2022-10-14T23:42:18.264Z,10.93
2022-10-14T23:47:20.244Z,10.63
2022-10-14T23:52:22.119Z,9.87
2022-10-14T23:57:24.084Z,11.00
